createdAt,value
2018-06-07T00:01:53.917Z,99895.27
2018-06-07T00:04:21.570Z,99900.89
2018-06-07T00:06:49.149Z,99896.59
2018-06-07T00:09:16.739Z,99900.70
2018-06-07T00:11:44.345Z,99901.83
2018-06-07T00:14:12.057Z,99892.53
2018-06-07T00:16:39.659Z,99891.84
2018-06-07T00:19:07.281Z,99894.65
2018-06-07T00:21:34.923Z,99887.05
2018-06-07T00:24:02.584Z,99900.39
2018-06-07T00:26:30.199Z,99890.48
2018-06-07T00:28:57.758Z,99894.65
2018-06-07T00:31:25.348Z,99891.45
2018-06-07T00:33:52.973Z,99883.81
2018-06-07T00:36:20.602Z,99881.36
2018-06-07T00:38:48.215Z,99876.06
2018-06-07T00:41:15.820Z,99878.03
2018-06-07T00:43:43.496Z,99872.70
2018-06-07T00:46:11.118Z,99871.04
2018-06-07T00:48:39.060Z,99864.49
2018-06-07T00:51:06.634Z,99865.97
2018-06-07T00:53:34.260Z,99867.61
2018-06-07T00:56:01.878Z,99862.61
2018-06-07T00:58:29.506Z,99859.82
2018-06-07T01:00:57.120Z,99854.16
2018-06-07T01:03:24.735Z,99852.38
2018-06-07T01:05:52.377Z,99849.53
2018-06-07T01:08:20.024Z,99850.83
2018-06-07T01:10:48.644Z,99853.48
2018-06-07T01:13:16.306Z,99845.65
2018-06-07T01:15:43.978Z,99852.20
2018-06-07T01:18:11.661Z,99855.67
2018-06-07T01:20:39.293Z,99848.52
2018-06-07T01:23:06.951Z,99850.38
2018-06-07T01:25:34.541Z,99851.69
2018-06-07T01:28:02.117Z,99848.37
2018-06-07T01:30:35.581Z,99859.01
2018-06-07T01:33:35.750Z,99849.20
2018-06-07T01:36:03.406Z,99858.59
2018-06-07T01:38:48.695Z,99858.81
2018-06-07T01:41:16.449Z,99856.44
2018-06-07T01:43:44.175Z,99856.09
2018-06-07T01:46:11.793Z,99852.39
2018-06-07T01:48:39.388Z,99847.80
2018-06-07T01:51:06.977Z,99852.80
2018-06-07T01:53:34.517Z,99850.06
2018-06-07T01:56:02.139Z,99841.57
2018-06-07T01:58:29.718Z,99844.07
2018-06-07T02:00:57.251Z,99851.03
2018-06-07T02:03:24.898Z,99847.20
2018-06-07T02:05:52.476Z,99842.38
2018-06-07T02:08:20.110Z,99850.34
2018-06-07T02:10:47.740Z,99848.52
2018-06-07T02:13:15.297Z,99840.58
2018-06-07T02:15:42.947Z,99850.13
2018-06-07T02:18:10.629Z,99848.33
2018-06-07T02:20:38.299Z,99844.49
2018-06-07T02:23:05.896Z,99844.60
2018-06-07T02:25:33.513Z,99842.57
2018-06-07T02:28:01.097Z,99852.47
2018-06-07T02:30:28.678Z,99849.48
2018-06-07T02:32:56.327Z,99850.16
2018-06-07T02:35:23.877Z,99845.22
2018-06-07T02:37:51.481Z,99849.82
2018-06-07T02:40:19.041Z,99852.12
2018-06-07T02:42:46.680Z,99851.51
2018-06-07T02:45:14.307Z,99850.88
2018-06-07T02:47:41.932Z,99854.82
2018-06-07T02:50:09.562Z,99856.14
2018-06-07T02:52:37.138Z,99852.66
2018-06-07T02:55:05.235Z,99859.06
2018-06-07T02:57:32.822Z,99854.05
2018-06-07T03:00:00.487Z,99854.59
2018-06-07T03:02:28.066Z,99854.63
2018-06-07T03:04:55.713Z,99856.78
2018-06-07T03:07:23.322Z,99859.55
2018-06-07T03:09:50.993Z,99863.37
2018-06-07T03:12:18.911Z,99865.84
2018-06-07T03:14:46.555Z,99865.67
2018-06-07T03:17:14.193Z,99870.91
2018-06-07T03:19:41.850Z,99869.98
2018-06-07T03:22:09.465Z,99872.66
2018-06-07T03:24:37.150Z,99878.58
2018-06-07T03:27:04.787Z,99877.82
2018-06-07T03:29:32.419Z,99878.38
2018-06-07T03:32:00.031Z,99882.98
2018-06-07T03:34:27.692Z,99880.83
2018-06-07T03:36:55.310Z,99888.97
2018-06-07T03:39:22.936Z,99887.42
2018-06-07T03:41:50.546Z,99893.33
2018-06-07T03:44:18.168Z,99895.55
2018-06-07T03:46:45.836Z,99893.63
2018-06-07T03:49:13.732Z,99894.03
2018-06-07T03:51:41.298Z,99898.07
2018-06-07T03:54:09.543Z,99894.75
2018-06-07T03:56:37.152Z,99902.31
2018-06-07T03:59:04.792Z,99898.73
2018-06-07T04:01:32.432Z,99900.26
2018-06-07T04:04:00.183Z,99903.27
2018-06-07T04:06:27.812Z,99902.43
2018-06-07T04:08:55.387Z,99910.59
2018-06-07T04:11:22.997Z,99916.63
2018-06-07T04:13:50.598Z,99911.17
2018-06-07T04:16:18.204Z,99909.20
2018-06-07T04:18:45.880Z,99917.02
2018-06-07T04:21:13.448Z,99922.01
2018-06-07T04:23:41.049Z,99922.23
2018-06-07T04:26:08.679Z,99917.23
2018-06-07T04:28:36.330Z,99925.69
2018-06-07T04:31:03.948Z,99924.91
2018-06-07T04:33:31.574Z,99924.44
2018-06-07T04:35:59.170Z,99930.95
2018-06-07T04:38:26.716Z,99924.63
2018-06-07T04:40:54.310Z,99921.30
2018-06-07T04:43:21.916Z,99927.75
2018-06-07T04:45:49.582Z,99924.81
2018-06-07T04:48:17.246Z,99935.61
2018-06-07T04:50:44.865Z,99932.13
2018-06-07T04:53:12.510Z,99934.96
2018-06-07T04:55:40.224Z,99927.80
2018-06-07T04:58:07.851Z,99931.58
2018-06-07T05:00:35.516Z,99938.86
2018-06-07T05:03:03.138Z,99941.97
2018-06-07T05:05:30.781Z,99936.23
2018-06-07T05:07:58.417Z,99931.59
2018-06-07T05:10:26.036Z,99927.04
2018-06-07T05:12:53.587Z,99938.58
2018-06-07T05:15:21.165Z,99942.83
2018-06-07T05:17:48.772Z,99945.12
2018-06-07T05:20:16.369Z,99948.66
2018-06-07T05:22:43.962Z,99948.19
2018-06-07T05:25:11.568Z,99946.91
2018-06-07T05:27:39.161Z,99951.38
2018-06-07T05:30:06.789Z,99952.67
2018-06-07T05:32:34.388Z,99960.38
2018-06-07T05:35:02.001Z,99958.88
2018-06-07T05:37:29.562Z,99961.08
2018-06-07T05:39:57.244Z,99971.73
2018-06-07T05:42:24.836Z,99968.03
2018-06-07T05:44:52.438Z,99962.71
2018-06-07T05:47:20.078Z,99965.56
2018-06-07T05:49:47.699Z,99964.79
2018-06-07T05:52:15.397Z,99969.16
2018-06-07T05:54:43.037Z,99974.97
2018-06-07T05:57:10.677Z,99968.47
2018-06-07T05:59:38.368Z,99968.42
2018-06-07T06:02:06.189Z,99968.61
2018-06-07T06:04:33.813Z,99974.73
2018-06-07T06:07:01.449Z,99973.48
2018-06-07T06:09:29.128Z,99975.22
2018-06-07T06:11:56.689Z,99973.86
2018-06-07T06:14:24.612Z,99969.56
2018-06-07T06:16:52.261Z,99973.94
2018-06-07T06:19:19.909Z,99965.75
2018-06-07T06:21:47.587Z,99973.55
2018-06-07T06:24:15.291Z,99971.88
2018-06-07T06:26:42.974Z,99974.47
2018-06-07T06:29:10.668Z,99978.98
2018-06-07T06:31:38.422Z,99975.00
2018-06-07T06:34:06.074Z,99983.00
2018-06-07T06:36:33.700Z,99979.05
2018-06-07T06:39:01.357Z,99974.48
2018-06-07T06:41:28.954Z,99976.88
2018-06-07T06:43:56.593Z,99979.55
2018-06-07T06:46:24.307Z,99979.28
2018-06-07T06:48:51.952Z,99983.73
2018-06-07T06:51:19.645Z,99984.58
2018-06-07T06:53:47.329Z,99989.74
2018-06-07T06:56:15.069Z,99987.26
2018-06-07T06:58:42.664Z,99986.64
2018-06-07T07:01:10.289Z,99988.04
2018-06-07T07:03:37.960Z,99984.38
2018-06-07T07:06:05.595Z,99988.92
2018-06-07T07:08:33.218Z,99988.88
2018-06-07T07:11:00.850Z,99997.07
2018-06-07T07:13:28.508Z,99998.83
2018-06-07T07:15:56.094Z,99990.60
2018-06-07T07:18:23.715Z,99987.78
2018-06-07T07:20:51.362Z,99986.70
2018-06-07T07:23:19.009Z,99985.16
2018-06-07T07:25:46.594Z,99979.13
2018-06-07T07:28:14.236Z,99979.36
2018-06-07T07:30:41.865Z,99988.33
2018-06-07T07:33:09.502Z,99985.02
2018-06-07T07:35:37.119Z,99979.25
2018-06-07T07:38:04.718Z,99987.00
2018-06-07T07:40:32.329Z,99987.22
2018-06-07T07:43:00.010Z,99985.83
2018-06-07T07:45:27.658Z,99984.53
2018-06-07T07:47:55.303Z,99984.64
2018-06-07T07:50:22.886Z,99982.52
2018-06-07T07:52:50.551Z,99988.31
2018-06-07T07:55:18.200Z,99981.09
2018-06-07T07:57:45.812Z,99987.04
2018-06-07T08:00:13.527Z,99988.48
2018-06-07T08:02:41.158Z,99984.75
2018-06-07T08:05:08.799Z,99976.73
2018-06-07T08:07:36.448Z,99971.49
2018-06-07T08:10:04.402Z,99968.11
2018-06-07T08:12:32.112Z,99966.70
2018-06-07T08:15:06.493Z,99974.38
2018-06-07T08:17:34.245Z,99973.13
2018-06-07T08:20:02.046Z,99965.92
2018-06-07T08:22:29.693Z,99969.08
2018-06-07T08:24:57.373Z,99964.64
2018-06-07T08:27:24.975Z,99964.13
2018-06-07T08:29:52.639Z,99959.39
2018-06-07T08:32:20.265Z,99965.69
2018-06-07T08:34:47.920Z,99968.09
2018-06-07T08:37:15.615Z,99965.70
2018-06-07T08:39:43.354Z,99966.50
2018-06-07T08:44:45.616Z,99964.16
2018-06-07T08:47:13.343Z,99967.53
2018-06-07T08:49:41.339Z,99962.87
2018-06-07T08:52:09.002Z,99966.34
2018-06-07T08:54:36.666Z,99960.17
2018-06-07T08:57:04.387Z,99961.79
2018-06-07T08:59:32.038Z,99956.13
2018-06-07T09:01:59.682Z,99965.45
2018-06-07T09:04:27.292Z,99964.22
2018-06-07T09:06:54.965Z,99962.00
2018-06-07T09:09:22.670Z,99968.42
2018-06-07T09:11:50.351Z,99962.84
2018-06-07T09:14:18.040Z,99962.95
2018-06-07T09:16:46.007Z,99960.00
2018-06-07T09:19:13.623Z,99964.13
2018-06-07T09:21:41.238Z,99961.46
2018-06-07T09:24:08.928Z,99960.70
2018-06-07T09:26:36.554Z,99964.82
2018-06-07T09:29:04.212Z,99962.58
2018-06-07T09:31:31.840Z,99959.66
2018-06-07T09:33:59.568Z,99958.55
2018-06-07T09:36:27.273Z,99962.07
2018-06-07T09:38:54.931Z,99960.53
2018-06-07T09:41:22.542Z,99949.84
2018-06-07T09:43:50.200Z,99951.26
2018-06-07T09:46:17.853Z,99958.20
2018-06-07T09:48:45.463Z,99964.67
2018-06-07T09:51:13.119Z,99959.66
2018-06-07T09:53:40.783Z,99962.97
2018-06-07T09:56:08.385Z,99961.42
2018-06-07T09:58:35.989Z,99954.16
2018-06-07T10:01:03.631Z,99951.68
2018-06-07T10:03:31.253Z,99946.92
2018-06-07T10:05:58.953Z,99944.66
2018-06-07T10:08:26.562Z,99953.25
2018-06-07T10:10:54.265Z,99956.67
2018-06-07T10:13:21.870Z,99947.18
2018-06-07T10:15:49.459Z,99947.03
2018-06-07T10:18:17.116Z,99950.67
2018-06-07T10:20:44.927Z,99945.63
2018-06-07T10:23:12.600Z,99944.22
2018-06-07T10:25:40.266Z,99939.64
2018-06-07T10:28:07.939Z,99937.76
2018-06-07T10:30:35.573Z,99953.40
2018-06-07T10:33:03.243Z,99948.23
2018-06-07T10:35:30.888Z,99941.16
2018-06-07T10:37:58.459Z,99938.90
2018-06-07T10:40:26.120Z,99938.67
2018-06-07T10:42:53.751Z,99938.90
2018-06-07T10:45:21.355Z,99946.27
2018-06-07T10:47:48.949Z,99930.91
2018-06-07T10:50:16.699Z,99932.94
2018-06-07T10:52:44.312Z,99920.69
2018-06-07T10:55:11.887Z,99932.31
2018-06-07T10:57:39.550Z,99935.75
2018-06-07T11:00:07.197Z,99936.86
2018-06-07T11:02:34.826Z,99927.88
2018-06-07T11:05:02.537Z,99926.08
2018-06-07T11:07:30.231Z,99930.52
2018-06-07T11:09:57.957Z,99920.82
2018-06-07T11:12:25.553Z,99925.77
2018-06-07T11:14:53.272Z,99929.09
2018-06-07T11:17:20.904Z,99931.66
2018-06-07T11:19:48.572Z,99914.89
2018-06-07T11:22:16.196Z,99926.36
2018-06-07T11:24:43.828Z,99917.41
2018-06-07T11:27:11.451Z,99918.31
2018-06-07T11:29:39.142Z,99913.59
2018-06-07T11:32:07.162Z,99918.41
2018-06-07T11:34:34.947Z,99911.38
2018-06-07T11:37:02.657Z,99905.23
2018-06-07T11:39:30.393Z,99904.16
2018-06-07T11:41:58.041Z,99902.11
2018-06-07T11:44:25.667Z,99902.75
2018-06-07T11:46:53.393Z,99899.99
2018-06-07T11:49:21.063Z,99894.93
2018-06-07T11:51:48.629Z,99891.95
2018-06-07T11:54:16.242Z,99893.58
2018-06-07T11:56:43.871Z,99888.91
2018-06-07T11:59:11.494Z,99880.92
2018-06-07T12:01:39.109Z,99889.10
2018-06-07T12:04:06.735Z,99893.83
2018-06-07T12:06:34.330Z,99895.69
2018-06-07T12:09:01.994Z,99894.21
2018-06-07T12:11:29.608Z,99897.06
2018-06-07T12:13:57.310Z,99897.32
2018-06-07T12:16:24.924Z,99887.78
2018-06-07T12:18:52.587Z,99892.16
2018-06-07T12:21:20.155Z,99888.91
2018-06-07T12:23:47.818Z,99893.36
2018-06-07T12:26:15.553Z,99893.89
2018-06-07T12:28:43.177Z,99891.55
2018-06-07T12:31:10.807Z,99887.95
2018-06-07T12:33:38.441Z,99890.36
2018-06-07T12:36:06.045Z,99893.05
2018-06-07T12:38:33.612Z,99882.62
2018-06-07T12:41:02.529Z,99880.55
2018-06-07T12:43:35.100Z,99880.81
2018-06-07T12:46:02.748Z,99881.99
2018-06-07T12:48:30.462Z,99874.82
2018-06-07T12:50:58.085Z,99868.62
2018-06-07T12:53:25.739Z,99866.17
2018-06-07T12:55:53.423Z,99875.28
2018-06-07T12:58:20.996Z,99866.20
2018-06-07T13:00:48.918Z,99874.66
2018-06-07T13:03:16.566Z,99868.27
2018-06-07T13:05:44.227Z,99870.05
2018-06-07T13:08:11.880Z,99861.42
2018-06-07T13:10:39.491Z,99863.03
2018-06-07T13:13:07.092Z,99858.83
2018-06-07T13:15:34.741Z,99850.95
2018-06-07T13:18:02.339Z,99845.66
2018-06-07T13:20:30.093Z,99839.84
2018-06-07T13:22:57.682Z,99847.31
2018-06-07T13:25:25.234Z,99837.38
2018-06-07T13:27:52.787Z,99831.97
2018-06-07T13:30:20.409Z,99826.96
2018-06-07T13:32:48.049Z,99818.20
2018-06-07T13:35:15.709Z,99825.55
2018-06-07T13:37:43.357Z,99816.00
2018-06-07T13:40:10.974Z,99820.25
2018-06-07T13:42:38.601Z,99820.14
2018-06-07T13:45:06.205Z,99826.63
2018-06-07T13:47:33.840Z,99826.09
2018-06-07T13:50:01.403Z,99820.52
2018-06-07T13:52:29.012Z,99820.29
2018-06-07T13:54:56.569Z,99817.91
2018-06-07T13:57:24.159Z,99812.77
2018-06-07T13:59:52.335Z,99801.91
2018-06-07T14:02:19.996Z,99793.70
2018-06-07T14:04:47.554Z,99791.70
2018-06-07T14:07:15.208Z,99797.40
2018-06-07T14:09:42.821Z,99795.95
2018-06-07T14:12:10.492Z,99797.52
2018-06-07T14:14:38.221Z,99796.06
2018-06-07T14:17:05.872Z,99800.12
2018-06-07T14:19:33.455Z,99800.51
2018-06-07T14:22:01.078Z,99788.45
2018-06-07T14:24:28.710Z,99781.05
2018-06-07T14:26:56.298Z,99786.91
2018-06-07T14:29:23.938Z,99779.87
2018-06-07T14:31:51.565Z,99788.66
2018-06-07T14:34:19.219Z,99784.16
2018-06-07T14:36:46.823Z,99780.41
2018-06-07T14:39:14.433Z,99785.38
2018-06-07T14:41:42.039Z,99777.36
2018-06-07T14:44:09.675Z,99776.78
2018-06-07T14:46:37.317Z,99773.11
2018-06-07T14:49:04.983Z,99760.47
2018-06-07T14:51:32.569Z,99770.21
2018-06-07T14:54:00.182Z,99759.08
2018-06-07T14:56:27.817Z,99754.69
2018-06-07T14:58:55.481Z,99749.84
2018-06-07T15:01:23.104Z,99736.92
2018-06-07T15:03:50.804Z,99740.45
2018-06-07T15:06:18.535Z,99751.78
2018-06-07T15:08:46.132Z,99749.19
2018-06-07T15:11:13.723Z,99746.84
2018-06-07T15:13:41.421Z,99746.30
2018-06-07T15:16:09.063Z,99738.56
2018-06-07T15:18:36.760Z,99742.51
2018-06-07T15:21:04.646Z,99737.71
2018-06-07T15:23:32.346Z,99749.99
2018-06-07T15:26:00.055Z,99740.03
2018-06-07T15:28:27.714Z,99734.29
2018-06-07T15:30:55.322Z,99743.91
2018-06-07T15:33:22.991Z,99740.38
2018-06-07T15:35:50.686Z,99727.67
2018-06-07T15:38:18.309Z,99713.82
2018-06-07T15:40:46.985Z,99705.02
2018-06-07T15:43:14.668Z,99708.48
2018-06-07T15:45:42.335Z,99708.81
2018-06-07T15:48:09.984Z,99705.84
2018-06-07T15:50:37.623Z,99707.98
2018-06-07T15:53:05.253Z,99698.11
2018-06-07T15:55:32.902Z,99703.48
2018-06-07T15:58:00.580Z,99702.22
2018-06-07T16:00:28.213Z,99700.58
2018-06-07T16:02:55.863Z,99699.03
2018-06-07T16:05:23.494Z,99699.72
2018-06-07T16:07:51.190Z,99697.75
2018-06-07T16:10:18.924Z,99699.23
2018-06-07T16:12:46.727Z,99687.17
2018-06-07T16:15:14.514Z,99682.30
2018-06-07T16:17:42.188Z,99684.63
2018-06-07T16:20:10.043Z,99684.94
2018-06-07T16:22:37.735Z,99681.05
2018-06-07T16:25:05.776Z,99687.97
2018-06-07T16:27:33.478Z,99691.48
2018-06-07T16:30:01.104Z,99691.47
2018-06-07T16:32:28.761Z,99688.81
2018-06-07T16:34:56.438Z,99694.09
2018-06-07T16:37:24.684Z,99687.03
2018-06-07T16:39:52.372Z,99694.70
2018-06-07T16:42:20.038Z,99697.92
2018-06-07T16:44:47.644Z,99693.60
2018-06-07T16:47:15.207Z,99684.16
2018-06-07T16:49:42.813Z,99692.03
2018-06-07T16:52:10.411Z,99697.08
2018-06-07T16:54:38.067Z,99694.04
2018-06-07T16:57:05.744Z,99686.95
2018-06-07T16:59:33.357Z,99695.55
2018-06-07T17:02:01.104Z,99695.00
2018-06-07T17:04:28.718Z,99691.13
2018-06-07T17:06:56.596Z,99694.21
2018-06-07T17:09:24.282Z,99697.35
2018-06-07T17:11:52.022Z,99698.39
2018-06-07T17:14:19.691Z,99698.33
2018-06-07T17:16:47.350Z,99700.90
2018-06-07T17:19:14.969Z,99709.66
2018-06-07T17:21:42.567Z,99713.20
2018-06-07T17:24:10.234Z,99714.84
2018-06-07T17:26:37.881Z,99709.03
2018-06-07T17:29:05.557Z,99704.66
2018-06-07T17:31:33.227Z,99705.30
2018-06-07T17:34:00.967Z,99702.53
2018-06-07T17:36:28.657Z,99700.20
2018-06-07T17:38:56.348Z,99713.69
2018-06-07T17:41:23.993Z,99703.39
2018-06-07T17:43:51.665Z,99703.00
2018-06-07T17:46:19.397Z,99695.15
2018-06-07T17:48:47.138Z,99699.28
2018-06-07T17:51:14.860Z,99700.75
2018-06-07T17:53:42.600Z,99700.39
2018-06-07T17:56:10.286Z,99699.50
2018-06-07T17:58:38.055Z,99700.73
2018-06-07T18:01:05.894Z,99706.38
2018-06-07T18:03:33.644Z,99701.45
2018-06-07T18:06:01.528Z,99705.31
2018-06-07T18:08:29.326Z,99702.38
2018-06-07T18:10:57.010Z,99698.30
2018-06-07T18:13:24.778Z,99696.39
2018-06-07T18:15:52.547Z,99689.33
2018-06-07T18:18:20.237Z,99694.29
2018-06-07T18:20:47.913Z,99688.59
2018-06-07T18:23:15.668Z,99685.73
2018-06-07T18:25:43.331Z,99693.42
2018-06-07T18:28:11.023Z,99692.65
2018-06-07T18:30:38.742Z,99690.14
2018-06-07T18:33:06.503Z,99685.62
2018-06-07T18:35:34.257Z,99683.53
2018-06-07T18:38:02.038Z,99685.06
2018-06-07T18:40:29.711Z,99687.66
2018-06-07T18:42:57.679Z,99683.14
2018-06-07T18:45:25.606Z,99683.89
2018-06-07T18:47:53.399Z,99690.36
2018-06-07T18:50:21.269Z,99694.02
2018-06-07T18:52:48.971Z,99695.30
2018-06-07T18:55:16.826Z,99692.73
2018-06-07T18:57:44.867Z,99697.09
2018-06-07T19:00:12.559Z,99703.82
2018-06-07T19:02:40.274Z,99703.09
2018-06-07T19:05:08.158Z,99700.94
2018-06-07T19:07:36.066Z,99699.68
2018-06-07T19:10:08.775Z,99700.70
2018-06-07T19:12:36.539Z,99700.23
2018-06-07T19:15:20.517Z,99699.22
2018-06-07T19:17:48.413Z,99710.78
2018-06-07T19:20:22.048Z,99711.77
2018-06-07T19:22:50.153Z,99718.48
2018-06-07T19:25:23.752Z,99718.30
2018-06-07T19:27:52.566Z,99720.52
2018-06-07T19:30:20.525Z,99722.89
2018-06-07T19:32:53.926Z,99725.21
2018-06-07T19:35:21.725Z,99729.03
2018-06-07T19:37:49.507Z,99733.11
2018-06-07T19:40:22.968Z,99735.70
2018-06-07T19:42:51.255Z,99727.80
2018-06-07T19:45:19.042Z,99735.28
2018-06-07T19:47:47.294Z,99735.96
2018-06-07T19:50:15.187Z,99742.70
2018-06-07T19:52:43.050Z,99739.66
2018-06-07T19:55:11.383Z,99739.69
2018-06-07T19:57:39.045Z,99743.80
2018-06-07T20:00:07.482Z,99743.95
2018-06-07T20:02:35.230Z,99745.43
2018-06-07T20:05:03.185Z,99750.30
2018-06-07T20:07:31.009Z,99748.67
2018-06-07T20:09:58.863Z,99744.98
2018-06-07T20:12:26.594Z,99751.84
2018-06-07T20:14:54.280Z,99753.50
2018-06-07T20:17:21.903Z,99752.98
2018-06-07T20:19:49.662Z,99752.79
2018-06-07T20:22:17.413Z,99754.33
2018-06-07T20:24:45.126Z,99756.71
2018-06-07T20:27:12.896Z,99758.86
2018-06-07T20:29:42.617Z,99757.90
2018-06-07T20:32:10.619Z,99754.11
2018-06-07T20:34:38.413Z,99757.60
2018-06-07T20:37:06.084Z,99754.75
2018-06-07T20:39:33.733Z,99757.20
2018-06-07T20:42:01.355Z,99754.63
2018-06-07T20:44:29.089Z,99752.21
2018-06-07T20:46:56.715Z,99752.70
2018-06-07T20:49:24.451Z,99751.53
2018-06-07T20:51:52.193Z,99744.50
2018-06-07T20:54:19.988Z,99738.39
2018-06-07T20:56:47.851Z,99742.75
2018-06-07T20:59:15.612Z,99738.19
2018-06-07T21:01:43.479Z,99739.36
2018-06-07T21:04:11.254Z,99744.75
2018-06-07T21:06:39.080Z,99745.53
2018-06-07T21:09:08.512Z,99743.97
2018-06-07T21:11:36.508Z,99741.35
2018-06-07T21:14:04.814Z,99745.55
2018-06-07T21:16:32.994Z,99742.27
2018-06-07T21:19:00.746Z,99741.89
2018-06-07T21:21:28.474Z,99741.47
2018-06-07T21:23:56.154Z,99742.25
2018-06-07T21:26:24.012Z,99742.63
2018-06-07T21:28:51.902Z,99733.01
2018-06-07T21:31:19.723Z,99733.52
2018-06-07T21:33:47.600Z,99736.05
2018-06-07T21:36:15.344Z,99731.98
2018-06-07T21:38:43.027Z,99732.92
2018-06-07T21:41:11.188Z,99735.63
2018-06-07T21:43:38.882Z,99727.89
2018-06-07T21:46:06.872Z,99733.80
2018-06-07T21:48:34.619Z,99733.38
2018-06-07T21:51:02.387Z,99737.49
2018-06-07T21:53:30.135Z,99731.91
2018-06-07T21:55:57.934Z,99729.60
2018-06-07T21:58:25.848Z,99730.50
2018-06-07T22:00:53.537Z,99731.08
2018-06-07T22:03:22.386Z,99726.50
2018-06-07T22:05:50.086Z,99721.57
2018-06-07T22:08:17.976Z,99723.45
2018-06-07T22:10:45.709Z,99729.82
2018-06-07T22:13:13.463Z,99730.69
2018-06-07T22:15:41.297Z,99726.73
2018-06-07T22:18:09.053Z,99722.84
2018-06-07T22:20:36.996Z,99723.83
2018-06-07T22:23:05.041Z,99725.78
2018-06-07T22:25:32.805Z,99726.31
2018-06-07T22:28:02.760Z,99729.75
2018-06-07T22:30:30.780Z,99732.65
2018-06-07T22:32:58.563Z,99731.61
2018-06-07T22:35:26.600Z,99728.14
2018-06-07T22:37:54.550Z,99729.68
2018-06-07T22:40:22.367Z,99734.83
2018-06-07T22:42:50.177Z,99738.17
2018-06-07T22:45:18.003Z,99729.67
2018-06-07T22:47:45.742Z,99725.17
2018-06-07T22:50:13.406Z,99723.84
2018-06-07T22:52:41.212Z,99720.91
2018-06-07T22:55:09.136Z,99718.25
2018-06-07T22:57:37.006Z,99718.15
2018-06-07T23:00:04.911Z,99718.15
2018-06-07T23:02:33.708Z,99711.05
2018-06-07T23:05:01.628Z,99708.66
2018-06-07T23:07:29.378Z,99703.95
2018-06-07T23:09:57.215Z,99706.82
2018-06-07T23:12:25.124Z,99697.25
2018-06-07T23:14:52.889Z,99695.92
2018-06-07T23:17:20.578Z,99700.15
2018-06-07T23:19:48.576Z,99689.22
2018-06-07T23:22:16.314Z,99697.77
2018-06-07T23:24:44.207Z,99700.22
2018-06-07T23:27:12.035Z,99703.73
2018-06-07T23:29:39.921Z,99700.62
2018-06-07T23:32:07.953Z,99704.34
2018-06-07T23:34:35.605Z,99704.06
2018-06-07T23:37:03.275Z,99706.33
2018-06-07T23:39:30.937Z,99704.68
2018-06-07T23:41:58.569Z,99704.44
2018-06-07T23:44:26.156Z,99701.38
2018-06-07T23:46:53.735Z,99709.73
2018-06-07T23:49:21.346Z,99700.66
2018-06-07T23:51:48.961Z,99699.47
2018-06-07T23:54:16.614Z,99699.97
2018-06-07T23:56:44.241Z,99694.02
2018-06-07T23:59:11.834Z,99697.89
